sensor_id;sensor_type;location;lat;lon;timestamp;pressure;altitude;pressure_sealevel;temperature;humidity
4617;BME280;2321;42.704;23.384;2023-01-26T00:00:19;95945.13;;;0.95;nan
4617;BME280;2321;42.704;23.384;2023-01-26T00:02:46;95937.88;;;0.99;nan
4617;BME280;2321;42.704;23.384;2023-01-26T00:05:13;95939.56;;;1.00;nan
4617;BME280;2321;42.704;23.384;2023-01-26T00:07:40;95946.56;;;1.00;nan
4617;BME280;2321;42.704;23.384;2023-01-26T00:10:10;95947.19;;;0.92;nan
4617;BME280;2321;42.704;23.384;2023-01-26T00:12:38;95953.84;;;0.96;nan
4617;BME280;2321;42.704;23.384;2023-01-26T00:15:06;95948.72;;;0.94;nan
4617;BME280;2321;42.704;23.384;2023-01-26T00:17:33;95943.34;;;0.96;nan
4617;BME280;2321;42.704;23.384;2023-01-26T00:20:02;95950.28;;;0.97;nan
4617;BME280;2321;42.704;23.384;2023-01-26T00:22:30;95964.56;;;0.93;nan
4617;BME280;2321;42.704;23.384;2023-01-26T00:24:57;95961.09;;;0.92;nan
4617;BME280;2321;42.704;23.384;2023-01-26T00:27:23;95957.44;;;0.95;nan
4617;BME280;2321;42.704;23.384;2023-01-26T00:29:52;95946.94;;;0.95;nan
4617;BME280;2321;42.704;23.384;2023-01-26T00:32:19;95946.72;;;0.98;nan
4617;BME280;2321;42.704;23.384;2023-01-26T00:34:46;95937.25;;;0.95;nan
4617;BME280;2321;42.704;23.384;2023-01-26T00:37:13;95895.94;;;0.76;nan
4617;BME280;2321;42.704;23.384;2023-01-26T00:39:39;95919.75;;;0.96;nan
4617;BME280;2321;42.704;23.384;2023-01-26T00:42:06;95912.63;;;0.98;nan
4617;BME280;2321;42.704;23.384;2023-01-26T00:44:36;95915.59;;;0.93;nan
4617;BME280;2321;42.704;23.384;2023-01-26T00:47:06;95916.53;;;0.92;nan
4617;BME280;2321;42.704;23.384;2023-01-26T00:49:34;95910.47;;;0.92;nan
4617;BME280;2321;42.704;23.384;2023-01-26T00:52:02;95909.88;;;0.88;nan
4617;BME280;2321;42.704;23.384;2023-01-26T00:54:29;95919.38;;;0.89;nan
4617;BME280;2321;42.704;23.384;2023-01-26T00:56:56;95912.50;;;0.88;nan
4617;BME280;2321;42.704;23.384;2023-01-26T00:59:23;95912.59;;;0.86;nan
4617;BME280;2321;42.704;23.384;2023-01-26T01:01:51;95909.25;;;0.84;nan
4617;BME280;2321;42.704;23.384;2023-01-26T01:04:19;95909.75;;;0.78;nan
4617;BME280;2321;42.704;23.384;2023-01-26T01:06:46;95897.34;;;0.80;nan
4617;BME280;2321;42.704;23.384;2023-01-26T01:09:13;95892.09;;;0.80;nan
4617;BME280;2321;42.704;23.384;2023-01-26T01:11:40;95884.47;;;0.77;nan
4617;BME280;2321;42.704;23.384;2023-01-26T01:14:08;95893.16;;;0.78;nan
4617;BME280;2321;42.704;23.384;2023-01-26T01:16:35;95902.00;;;0.77;nan
4617;BME280;2321;42.704;23.384;2023-01-26T01:19:02;95896.63;;;0.78;nan
4617;BME280;2321;42.704;23.384;2023-01-26T01:21:30;95896.25;;;0.71;nan
4617;BME280;2321;42.704;23.384;2023-01-26T01:23:58;95883.75;;;0.75;nan
4617;BME280;2321;42.704;23.384;2023-01-26T01:26:25;95883.75;;;0.75;nan
4617;BME280;2321;42.704;23.384;2023-01-26T01:28:53;95892.47;;;0.75;nan
4617;BME280;2321;42.704;23.384;2023-01-26T01:31:22;95890.69;;;0.76;nan
4617;BME280;2321;42.704;23.384;2023-01-26T01:33:50;95889.13;;;0.73;nan
4617;BME280;2321;42.704;23.384;2023-01-26T01:36:18;95886.50;;;0.73;nan
4617;BME280;2321;42.704;23.384;2023-01-26T01:38:46;95884.84;;;0.72;nan
4617;BME280;2321;42.704;23.384;2023-01-26T01:41:14;95890.19;;;0.71;nan
4617;BME280;2321;42.704;23.384;2023-01-26T01:43:42;95885.44;;;0.76;nan
4617;BME280;2321;42.704;23.384;2023-01-26T01:46:15;95879.22;;;0.77;nan
4617;BME280;2321;42.704;23.384;2023-01-26T01:48:49;95885.53;;;0.74;nan
4617;BME280;2321;42.704;23.384;2023-01-26T01:51:20;95884.22;;;0.69;nan
4617;BME280;2321;42.704;23.384;2023-01-26T01:53:54;95880.66;;;0.70;nan
4617;BME280;2321;42.704;23.384;2023-01-26T01:56:25;95872.31;;;0.64;nan
4617;BME280;2321;42.704;23.384;2023-01-26T01:58:56;95881.84;;;0.65;nan
4617;BME280;2321;42.704;23.384;2023-01-26T02:01:23;95874.81;;;0.66;nan
4617;BME280;2321;42.704;23.384;2023-01-26T02:03:54;95879.34;;;0.64;nan
4617;BME280;2321;42.704;23.384;2023-01-26T02:06:27;95869.81;;;0.63;nan
4617;BME280;2321;42.704;23.384;2023-01-26T02:08:57;95867.44;;;0.60;nan
4617;BME280;2321;42.704;23.384;2023-01-26T02:11:28;95868.50;;;0.57;nan
4617;BME280;2321;42.704;23.384;2023-01-26T02:13:57;95861.34;;;0.59;nan
4617;BME280;2321;42.704;23.384;2023-01-26T02:16:25;95860.63;;;0.57;nan
4617;BME280;2321;42.704;23.384;2023-01-26T02:18:52;95855.41;;;0.57;nan
4617;BME280;2321;42.704;23.384;2023-01-26T02:21:21;95840.25;;;0.49;nan
4617;BME280;2321;42.704;23.384;2023-01-26T02:24:00;95849.09;;;0.60;nan
4617;BME280;2321;42.704;23.384;2023-01-26T02:26:33;95840.28;;;0.61;nan
4617;BME280;2321;42.704;23.384;2023-01-26T02:29:01;95832.19;;;0.64;nan
4617;BME280;2321;42.704;23.384;2023-01-26T02:31:30;95827.88;;;0.63;nan
4617;BME280;2321;42.704;23.384;2023-01-26T02:33:57;95821.19;;;0.59;nan
4617;BME280;2321;42.704;23.384;2023-01-26T02:36:25;95822.03;;;0.59;nan
4617;BME280;2321;42.704;23.384;2023-01-26T02:38:59;95812.41;;;0.60;nan
4617;BME280;2321;42.704;23.384;2023-01-26T02:41:31;95818.34;;;0.62;nan
4617;BME280;2321;42.704;23.384;2023-01-26T02:44:15;95822.88;;;0.60;nan
4617;BME280;2321;42.704;23.384;2023-01-26T02:46:42;95818.72;;;0.57;nan
4617;BME280;2321;42.704;23.384;2023-01-26T02:49:09;95821.44;;;0.56;nan
4617;BME280;2321;42.704;23.384;2023-01-26T02:51:53;95812.75;;;0.55;nan
4617;BME280;2321;42.704;23.384;2023-01-26T02:54:20;95805.16;;;0.52;nan
4617;BME280;2321;42.704;23.384;2023-01-26T02:57:06;95804.31;;;0.51;nan
4617;BME280;2321;42.704;23.384;2023-01-26T02:59:33;95800.94;;;0.49;nan
4617;BME280;2321;42.704;23.384;2023-01-26T03:02:00;95798.22;;;0.51;nan
4617;BME280;2321;42.704;23.384;2023-01-26T03:04:27;95791.66;;;0.57;nan
4617;BME280;2321;42.704;23.384;2023-01-26T03:06:54;95784.28;;;0.62;nan
4617;BME280;2321;42.704;23.384;2023-01-26T03:09:21;95785.56;;;0.68;nan
4617;BME280;2321;42.704;23.384;2023-01-26T03:11:48;95786.06;;;0.73;nan
4617;BME280;2321;42.704;23.384;2023-01-26T03:14:16;95785.34;;;0.71;nan
4617;BME280;2321;42.704;23.384;2023-01-26T03:16:43;95770.09;;;0.64;nan
4617;BME280;2321;42.704;23.384;2023-01-26T03:19:12;95777.97;;;0.76;nan
4617;BME280;2321;42.704;23.384;2023-01-26T03:21:57;95771.50;;;0.80;nan
4617;BME280;2321;42.704;23.384;2023-01-26T03:24:42;95766.50;;;0.89;nan
4617;BME280;2321;42.704;23.384;2023-01-26T03:27:26;95763.88;;;0.89;nan
4617;BME280;2321;42.704;23.384;2023-01-26T03:29:56;95759.34;;;0.91;nan
4617;BME280;2321;42.704;23.384;2023-01-26T03:32:24;95754.59;;;0.84;nan
4617;BME280;2321;42.704;23.384;2023-01-26T03:34:51;95758.16;;;0.83;nan
4617;BME280;2321;42.704;23.384;2023-01-26T03:37:18;95757.22;;;0.84;nan
4617;BME280;2321;42.704;23.384;2023-01-26T03:39:48;95747.34;;;0.77;nan
4617;BME280;2321;42.704;23.384;2023-01-26T03:42:47;95751.25;;;0.82;nan
4617;BME280;2321;42.704;23.384;2023-01-26T03:45:32;95752.44;;;0.78;nan
4617;BME280;2321;42.704;23.384;2023-01-26T03:48:16;95753.41;;;0.77;nan
4617;BME280;2321;42.704;23.384;2023-01-26T03:51:01;95749.13;;;0.76;nan
4617;BME280;2321;42.704;23.384;2023-01-26T03:53:45;95732.56;;;0.75;nan
4617;BME280;2321;42.704;23.384;2023-01-26T03:56:30;95737.22;;;0.72;nan
4617;BME280;2321;42.704;23.384;2023-01-26T03:58:59;95733.88;;;0.70;nan
4617;BME280;2321;42.704;23.384;2023-01-26T04:01:35;95735.78;;;0.68;nan
4617;BME280;2321;42.704;23.384;2023-01-26T04:04:04;95728.66;;;0.70;nan
4617;BME280;2321;42.704;23.384;2023-01-26T04:06:49;95725.53;;;0.64;nan
4617;BME280;2321;42.704;23.384;2023-01-26T04:09:34;95716.13;;;0.62;nan
4617;BME280;2321;42.704;23.384;2023-01-26T04:12:02;95717.56;;;0.66;nan
4617;BME280;2321;42.704;23.384;2023-01-26T04:14:29;95718.84;;;0.72;nan
4617;BME280;2321;42.704;23.384;2023-01-26T04:17:15;95715.41;;;0.71;nan
4617;BME280;2321;42.704;23.384;2023-01-26T04:20:00;95716.38;;;0.70;nan
4617;BME280;2321;42.704;23.384;2023-01-26T04:22:44;95699.22;;;0.66;nan
4617;BME280;2321;42.704;23.384;2023-01-26T04:25:15;95692.19;;;0.67;nan
4617;BME280;2321;42.704;23.384;2023-01-26T04:27:43;95688.72;;;0.66;nan
4617;BME280;2321;42.704;23.384;2023-01-26T04:30:12;95686.72;;;0.70;nan
4617;BME280;2321;42.704;23.384;2023-01-26T04:32:40;95686.72;;;0.70;nan
4617;BME280;2321;42.704;23.384;2023-01-26T04:35:08;95689.09;;;0.73;nan
4617;BME280;2321;42.704;23.384;2023-01-26T04:37:36;95684.69;;;0.73;nan
4617;BME280;2321;42.704;23.384;2023-01-26T04:40:03;95689.91;;;0.73;nan
4617;BME280;2321;42.704;23.384;2023-01-26T04:42:31;95685.13;;;0.79;nan
4617;BME280;2321;42.704;23.384;2023-01-26T04:44:58;95692.84;;;0.80;nan
4617;BME280;2321;42.704;23.384;2023-01-26T04:47:25;95686.81;;;0.80;nan
4617;BME280;2321;42.704;23.384;2023-01-26T04:49:53;95689.78;;;0.75;nan
4617;BME280;2321;42.704;23.384;2023-01-26T04:52:20;95686.91;;;0.78;nan
4617;BME280;2321;42.704;23.384;2023-01-26T04:54:47;95691.22;;;0.79;nan
4617;BME280;2321;42.704;23.384;2023-01-26T04:57:13;95691.56;;;0.74;nan
4617;BME280;2321;42.704;23.384;2023-01-26T04:59:40;95696.47;;;0.79;nan
4617;BME280;2321;42.704;23.384;2023-01-26T05:02:07;95696.22;;;0.82;nan
4617;BME280;2321;42.704;23.384;2023-01-26T05:04:34;95693.59;;;0.82;nan
4617;BME280;2321;42.704;23.384;2023-01-26T05:07:03;95693.09;;;0.89;nan
4617;BME280;2321;42.704;23.384;2023-01-26T05:09:30;95689.03;;;0.84;nan
4617;BME280;2321;42.704;23.384;2023-01-26T05:11:57;95693.44;;;0.84;nan
4617;BME280;2321;42.704;23.384;2023-01-26T05:14:43;95691.78;;;0.83;nan
4617;BME280;2321;42.704;23.384;2023-01-26T05:17:10;95687.38;;;0.83;nan
4617;BME280;2321;42.704;23.384;2023-01-26T05:19:37;95685.47;;;0.85;nan
4617;BME280;2321;42.704;23.384;2023-01-26T05:22:06;95685.22;;;0.89;nan
4617;BME280;2321;42.704;23.384;2023-01-26T05:24:32;95684.50;;;0.86;nan
4617;BME280;2321;42.704;23.384;2023-01-26T05:26:59;95678.41;;;0.86;nan
4617;BME280;2321;42.704;23.384;2023-01-26T05:29:40;95678.75;;;0.93;nan
4617;BME280;2321;42.704;23.384;2023-01-26T05:32:07;95670.19;;;0.91;nan
4617;BME280;2321;42.704;23.384;2023-01-26T05:34:36;95669.81;;;0.95;nan
4617;BME280;2321;42.704;23.384;2023-01-26T05:37:03;95674.94;;;0.97;nan
4617;BME280;2321;42.704;23.384;2023-01-26T05:39:32;95681.72;;;1.00;nan
4617;BME280;2321;42.704;23.384;2023-01-26T05:41:58;95666.94;;;0.98;nan
4617;BME280;2321;42.704;23.384;2023-01-26T05:44:25;95664.19;;;1.00;nan
4617;BME280;2321;42.704;23.384;2023-01-26T05:46:53;95673.00;;;0.99;nan
4617;BME280;2321;42.704;23.384;2023-01-26T05:49:20;95669.56;;;0.98;nan
4617;BME280;2321;42.704;23.384;2023-01-26T05:51:47;95683.16;;;1.04;nan
4617;BME280;2321;42.704;23.384;2023-01-26T05:54:14;95678.47;;;1.07;nan
4617;BME280;2321;42.704;23.384;2023-01-26T05:56:42;95670.03;;;1.04;nan
4617;BME280;2321;42.704;23.384;2023-01-26T05:59:09;95682.66;;;1.10;nan
4617;BME280;2321;42.704;23.384;2023-01-26T06:01:36;95678.22;;;1.11;nan
4617;BME280;2321;42.704;23.384;2023-01-26T06:04:04;95674.88;;;1.08;nan
4617;BME280;2321;42.704;23.384;2023-01-26T06:06:31;95680.59;;;1.14;nan
4617;BME280;2321;42.704;23.384;2023-01-26T06:08:58;95675.34;;;1.14;nan
4617;BME280;2321;42.704;23.384;2023-01-26T06:11:25;95682.75;;;1.08;nan
4617;BME280;2321;42.704;23.384;2023-01-26T06:13:53;95675.81;;;1.19;nan
4617;BME280;2321;42.704;23.384;2023-01-26T06:16:20;95679.53;;;1.16;nan
4617;BME280;2321;42.704;23.384;2023-01-26T06:18:47;95674.13;;;1.18;nan
4617;BME280;2321;42.704;23.384;2023-01-26T06:21:14;95666.19;;;1.29;nan
4617;BME280;2321;42.704;23.384;2023-01-26T06:23:41;95657.97;;;1.34;nan
4617;BME280;2321;42.704;23.384;2023-01-26T06:26:08;95665.09;;;1.32;nan
4617;BME280;2321;42.704;23.384;2023-01-26T06:28:35;95662.38;;;1.34;nan
4617;BME280;2321;42.704;23.384;2023-01-26T06:31:05;95650.94;;;1.35;nan
4617;BME280;2321;42.704;23.384;2023-01-26T06:33:34;95653.81;;;1.32;nan
4617;BME280;2321;42.704;23.384;2023-01-26T06:36:02;95651.88;;;1.34;nan
4617;BME280;2321;42.704;23.384;2023-01-26T06:38:29;95642.81;;;1.38;nan
4617;BME280;2321;42.704;23.384;2023-01-26T06:40:58;95649.94;;;1.36;nan
4617;BME280;2321;42.704;23.384;2023-01-26T06:43:27;95647.31;;;1.36;nan
4617;BME280;2321;42.704;23.384;2023-01-26T06:45:54;95650.78;;;1.36;nan
4617;BME280;2321;42.704;23.384;2023-01-26T06:48:23;95652.47;;;1.37;nan
4617;BME280;2321;42.704;23.384;2023-01-26T06:50:50;95651.03;;;1.33;nan
4617;BME280;2321;42.704;23.384;2023-01-26T06:53:25;95652.47;;;1.37;nan
4617;BME280;2321;42.704;23.384;2023-01-26T06:55:52;95647.84;;;1.29;nan
4617;BME280;2321;42.704;23.384;2023-01-26T06:58:18;95647.84;;;1.29;nan
4617;BME280;2321;42.704;23.384;2023-01-26T07:00:45;95636.97;;;1.34;nan
4617;BME280;2321;42.704;23.384;2023-01-26T07:03:12;95641.25;;;1.35;nan
4617;BME280;2321;42.704;23.384;2023-01-26T07:05:41;95635.88;;;1.37;nan
4617;BME280;2321;42.704;23.384;2023-01-26T07:08:08;95640.28;;;1.36;nan
4617;BME280;2321;42.704;23.384;2023-01-26T07:10:35;95639.47;;;1.36;nan
4617;BME280;2321;42.704;23.384;2023-01-26T07:13:03;95628.69;;;1.39;nan
4617;BME280;2321;42.704;23.384;2023-01-26T07:15:30;95622.50;;;1.40;nan
4617;BME280;2321;42.704;23.384;2023-01-26T07:17:58;95622.75;;;1.37;nan
4617;BME280;2321;42.704;23.384;2023-01-26T07:20:25;95621.34;;;1.33;nan
4617;BME280;2321;42.704;23.384;2023-01-26T07:22:54;95622.06;;;1.35;nan
4617;BME280;2321;42.704;23.384;2023-01-26T07:25:21;95614.88;;;1.37;nan
4617;BME280;2321;42.704;23.384;2023-01-26T07:27:47;95606.75;;;1.40;nan
4617;BME280;2321;42.704;23.384;2023-01-26T07:30:15;95620.56;;;1.42;nan
4617;BME280;2321;42.704;23.384;2023-01-26T07:32:42;95614.63;;;1.40;nan
4617;BME280;2321;42.704;23.384;2023-01-26T07:35:09;95624.72;;;1.45;nan
4617;BME280;2321;42.704;23.384;2023-01-26T07:37:36;95619.22;;;1.48;nan
4617;BME280;2321;42.704;23.384;2023-01-26T07:40:05;95616.31;;;1.41;nan
4617;BME280;2321;42.704;23.384;2023-01-26T07:42:32;95615.31;;;1.42;nan
4617;BME280;2321;42.704;23.384;2023-01-26T07:44:59;95612.13;;;1.38;nan
4617;BME280;2321;42.704;23.384;2023-01-26T07:47:26;95603.19;;;1.41;nan
4617;BME280;2321;42.704;23.384;2023-01-26T07:49:53;95601.50;;;1.40;nan
4617;BME280;2321;42.704;23.384;2023-01-26T07:52:20;95600.16;;;1.46;nan
4617;BME280;2321;42.704;23.384;2023-01-26T07:54:47;95606.09;;;1.48;nan
4617;BME280;2321;42.704;23.384;2023-01-26T07:57:17;95608.47;;;1.51;nan
4617;BME280;2321;42.704;23.384;2023-01-26T07:59:44;95604.19;;;1.50;nan
4617;BME280;2321;42.704;23.384;2023-01-26T08:02:11;95611.94;;;1.51;nan
4617;BME280;2321;42.704;23.384;2023-01-26T08:04:38;95602.59;;;1.59;nan
4617;BME280;2321;42.704;23.384;2023-01-26T08:07:04;95594.81;;;1.57;nan
4617;BME280;2321;42.704;23.384;2023-01-26T08:09:31;95592.50;;;1.64;nan
4617;BME280;2321;42.704;23.384;2023-01-26T08:11:58;95592.00;;;1.70;nan
4617;BME280;2321;42.704;23.384;2023-01-26T08:14:27;95590.19;;;1.71;nan
4617;BME280;2321;42.704;23.384;2023-01-26T08:16:54;95587.69;;;1.69;nan
4617;BME280;2321;42.704;23.384;2023-01-26T08:19:21;95579.56;;;1.72;nan
4617;BME280;2321;42.704;23.384;2023-01-26T08:21:48;95584.69;;;1.74;nan
4617;BME280;2321;42.704;23.384;2023-01-26T08:24:15;95582.91;;;1.74;nan
4617;BME280;2321;42.704;23.384;2023-01-26T08:26:55;95583.00;;;1.73;nan
4617;BME280;2321;42.704;23.384;2023-01-26T08:29:22;95587.56;;;1.71;nan
4617;BME280;2321;42.704;23.384;2023-01-26T08:31:50;95581.50;;;1.70;nan
4617;BME280;2321;42.704;23.384;2023-01-26T08:34:17;95571.69;;;1.72;nan
4617;BME280;2321;42.704;23.384;2023-01-26T08:36:46;95569.19;;;1.71;nan
4617;BME280;2321;42.704;23.384;2023-01-26T08:39:14;95574.31;;;1.72;nan
4617;BME280;2321;42.704;23.384;2023-01-26T08:41:40;95570.47;;;1.77;nan
4617;BME280;2321;42.704;23.384;2023-01-26T08:44:08;95569.09;;;1.82;nan
4617;BME280;2321;42.704;23.384;2023-01-26T08:46:35;95565.63;;;1.82;nan
4617;BME280;2321;42.704;23.384;2023-01-26T08:49:03;95559.16;;;1.86;nan
4617;BME280;2321;42.704;23.384;2023-01-26T08:51:30;95572.59;;;1.93;nan
4617;BME280;2321;42.704;23.384;2023-01-26T08:53:57;95565.13;;;1.98;nan
4617;BME280;2321;42.704;23.384;2023-01-26T08:56:24;95578.84;;;2.02;nan
4617;BME280;2321;42.704;23.384;2023-01-26T08:58:51;95576.06;;;2.03;nan
4617;BME280;2321;42.704;23.384;2023-01-26T09:01:18;95571.22;;;2.09;nan
4617;BME280;2321;42.704;23.384;2023-01-26T09:03:45;95575.94;;;2.15;nan
4617;BME280;2321;42.704;23.384;2023-01-26T09:06:13;95573.88;;;2.18;nan
4617;BME280;2321;42.704;23.384;2023-01-26T09:08:40;95571.69;;;2.24;nan
4617;BME280;2321;42.704;23.384;2023-01-26T09:11:08;95567.41;;;2.23;nan
4617;BME280;2321;42.704;23.384;2023-01-26T09:13:35;95573.22;;;2.26;nan
4617;BME280;2321;42.704;23.384;2023-01-26T09:16:04;95566.97;;;2.27;nan
4617;BME280;2321;42.704;23.384;2023-01-26T09:18:31;95563.25;;;2.30;nan
4617;BME280;2321;42.704;23.384;2023-01-26T09:21:01;95558.84;;;2.31;nan
4617;BME280;2321;42.704;23.384;2023-01-26T09:23:32;95549.44;;;2.28;nan
4617;BME280;2321;42.704;23.384;2023-01-26T09:25:59;95550.25;;;2.28;nan
4617;BME280;2321;42.704;23.384;2023-01-26T09:28:26;95559.41;;;2.34;nan
4617;BME280;2321;42.704;23.384;2023-01-26T09:30:53;95547.22;;;2.33;nan
4617;BME280;2321;42.704;23.384;2023-01-26T09:33:20;95548.03;;;2.34;nan
4617;BME280;2321;42.704;23.384;2023-01-26T09:35:47;95527.03;;;2.34;nan
4617;BME280;2321;42.704;23.384;2023-01-26T09:38:14;95520.69;;;2.26;nan
4617;BME280;2321;42.704;23.384;2023-01-26T09:40:49;95521.22;;;2.30;nan
4617;BME280;2321;42.704;23.384;2023-01-26T09:43:29;95518.47;;;2.32;nan
4617;BME280;2321;42.704;23.384;2023-01-26T09:46:06;95537.69;;;2.32;nan
4617;BME280;2321;42.704;23.384;2023-01-26T09:48:41;95530.06;;;2.29;nan
4617;BME280;2321;42.704;23.384;2023-01-26T09:51:12;95524.81;;;2.29;nan
4617;BME280;2321;42.704;23.384;2023-01-26T09:53:44;95519.56;;;2.29;nan
4617;BME280;2321;42.704;23.384;2023-01-26T09:56:18;95510.56;;;2.32;nan
4617;BME280;2321;42.704;23.384;2023-01-26T09:58:49;95498.13;;;2.34;nan
4617;BME280;2321;42.704;23.384;2023-01-26T10:01:22;95498.69;;;2.37;nan
4617;BME280;2321;42.704;23.384;2023-01-26T10:04:00;95502.25;;;2.36;nan
4617;BME280;2321;42.704;23.384;2023-01-26T10:06:30;95493.28;;;2.29;nan
4617;BME280;2321;42.704;23.384;2023-01-26T10:08:59;95517.06;;;2.37;nan
4617;BME280;2321;42.704;23.384;2023-01-26T10:11:31;95511.81;;;2.37;nan
4617;BME280;2321;42.704;23.384;2023-01-26T10:14:08;95511.81;;;2.37;nan
4617;BME280;2321;42.704;23.384;2023-01-26T10:16:38;95511.53;;;2.41;nan
4617;BME280;2321;42.704;23.384;2023-01-26T10:19:12;95508.78;;;2.42;nan
4617;BME280;2321;42.704;23.384;2023-01-26T10:21:43;95498.00;;;2.45;nan
4617;BME280;2321;42.704;23.384;2023-01-26T10:24:12;95482.38;;;2.54;nan
4617;BME280;2321;42.704;23.384;2023-01-26T10:26:41;95474.75;;;2.60;nan
4617;BME280;2321;42.704;23.384;2023-01-26T10:29:12;95471.97;;;2.62;nan
4617;BME280;2321;42.704;23.384;2023-01-26T10:31:41;95459.78;;;2.61;nan
4617;BME280;2321;42.704;23.384;2023-01-26T10:34:12;95450.81;;;2.64;nan
4617;BME280;2321;42.704;23.384;2023-01-26T10:36:41;95449.13;;;2.63;nan
4617;BME280;2321;42.704;23.384;2023-01-26T10:39:10;95448.97;;;2.64;nan
4617;BME280;2321;42.704;23.384;2023-01-26T10:41:38;95446.50;;;2.63;nan
4617;BME280;2321;42.704;23.384;2023-01-26T10:44:21;95426.03;;;2.66;nan
4617;BME280;2321;42.704;23.384;2023-01-26T10:47:03;95419.94;;;2.66;nan
4617;BME280;2321;42.704;23.384;2023-01-26T10:49:30;95404.44;;;2.72;nan
4617;BME280;2321;42.704;23.384;2023-01-26T10:52:05;95399.94;;;2.83;nan
4617;BME280;2321;42.704;23.384;2023-01-26T10:54:32;95400.50;;;2.87;nan
4617;BME280;2321;42.704;23.384;2023-01-26T10:57:02;95400.50;;;2.87;nan
4617;BME280;2321;42.704;23.384;2023-01-26T10:59:35;95398.84;;;2.86;nan
4617;BME280;2321;42.704;23.384;2023-01-26T11:02:23;95385.97;;;2.82;nan
4617;BME280;2321;42.704;23.384;2023-01-26T11:05:13;95376.28;;;2.83;nan
4617;BME280;2321;42.704;23.384;2023-01-26T11:07:41;95365.63;;;2.85;nan
4617;BME280;2321;42.704;23.384;2023-01-26T11:10:19;95374.75;;;2.90;nan
4617;BME280;2321;42.704;23.384;2023-01-26T11:12:47;95369.50;;;2.90;nan
4617;BME280;2321;42.704;23.384;2023-01-26T11:15:19;95367.25;;;2.96;nan
4617;BME280;2321;42.704;23.384;2023-01-26T11:17:58;95368.91;;;2.97;nan
4617;BME280;2321;42.704;23.384;2023-01-26T11:20:55;95357.25;;;2.99;nan
4617;BME280;2321;42.704;23.384;2023-01-26T11:23:41;95341.31;;;3.01;nan
4617;BME280;2321;42.704;23.384;2023-01-26T11:26:44;95340.34;;;3.02;nan
4617;BME280;2321;42.704;23.384;2023-01-26T11:29:31;95321.81;;;3.03;nan
4617;BME280;2321;42.704;23.384;2023-01-26T11:32:06;95318.19;;;3.04;nan
4617;BME280;2321;42.704;23.384;2023-01-26T11:34:41;95326.25;;;3.03;nan
4617;BME280;2321;42.704;23.384;2023-01-26T11:37:32;95314.59;;;3.05;nan
4617;BME280;2321;42.704;23.384;2023-01-26T11:40:13;95320.16;;;3.02;nan
4617;BME280;2321;42.704;23.384;2023-01-26T11:42:50;95317.22;;;3.05;nan
4617;BME280;2321;42.704;23.384;2023-01-26T11:45:26;95302.28;;;3.06;nan
4617;BME280;2321;42.704;23.384;2023-01-26T11:48:08;95292.72;;;3.05;nan
4617;BME280;2321;42.704;23.384;2023-01-26T11:50:41;95295.22;;;3.07;nan
4617;BME280;2321;42.704;23.384;2023-01-26T11:53:36;95302.28;;;3.06;nan
4617;BME280;2321;42.704;23.384;2023-01-26T11:56:16;95297.53;;;3.10;nan
4617;BME280;2321;42.704;23.384;2023-01-26T11:58:49;95307.38;;;3.08;nan
4617;BME280;2321;42.704;23.384;2023-01-26T12:01:21;95303.25;;;3.05;nan
4617;BME280;2321;42.704;23.384;2023-01-26T12:03:55;95301.56;;;3.04;nan
4617;BME280;2321;42.704;23.384;2023-01-26T12:06:28;95289.13;;;3.06;nan
4617;BME280;2321;42.704;23.384;2023-01-26T12:08:59;95292.88;;;3.03;nan
4617;BME280;2321;42.704;23.384;2023-01-26T12:11:30;95287.44;;;3.05;nan
4617;BME280;2321;42.704;23.384;2023-01-26T12:14:04;95289.53;;;3.01;nan
4617;BME280;2321;42.704;23.384;2023-01-26T12:16:51;95281.94;;;2.98;nan
4617;BME280;2321;42.704;23.384;2023-01-26T12:19:31;95270.88;;;2.94;nan
4617;BME280;2321;42.704;23.384;2023-01-26T12:22:05;95268.41;;;2.93;nan
4617;BME280;2321;42.704;23.384;2023-01-26T12:24:40;95255.66;;;2.98;nan
4617;BME280;2321;42.704;23.384;2023-01-26T12:27:15;95233.84;;;2.88;nan
4617;BME280;2321;42.704;23.384;2023-01-26T12:29:49;95243.09;;;2.92;nan
4617;BME280;2321;42.704;23.384;2023-01-26T12:32:18;95247.50;;;2.91;nan
4617;BME280;2321;42.704;23.384;2023-01-26T12:34:48;95246.53;;;2.92;nan
4617;BME280;2321;42.704;23.384;2023-01-26T12:37:27;95241.44;;;2.91;nan
4617;BME280;2321;42.704;23.384;2023-01-26T12:40:04;95234.53;;;2.90;nan
4617;BME280;2321;42.704;23.384;2023-01-26T12:42:41;95233.84;;;2.88;nan
4617;BME280;2321;42.704;23.384;2023-01-26T12:45:13;95226.09;;;2.86;nan
4617;BME280;2321;42.704;23.384;2023-01-26T12:47:46;95220.72;;;2.88;nan
4617;BME280;2321;42.704;23.384;2023-01-26T12:50:23;95226.09;;;2.86;nan
4617;BME280;2321;42.704;23.384;2023-01-26T12:52:55;95230.53;;;2.86;nan
4617;BME280;2321;42.704;23.384;2023-01-26T12:55:28;95228.59;;;2.88;nan
4617;BME280;2321;42.704;23.384;2023-01-26T12:57:59;95222.34;;;2.89;nan
4617;BME280;2321;42.704;23.384;2023-01-26T13:00:29;95220.53;;;2.89;nan
4617;BME280;2321;42.704;23.384;2023-01-26T13:03:01;95217.47;;;2.94;nan
4617;BME280;2321;42.704;23.384;2023-01-26T13:05:33;95212.88;;;2.96;nan
4617;BME280;2321;42.704;23.384;2023-01-26T13:11:01;95215.66;;;2.94;nan
4617;BME280;2321;42.704;23.384;2023-01-26T13:13:30;95213.25;;;3.01;nan
4617;BME280;2321;42.704;23.384;2023-01-26T13:16:32;95218.16;;;2.96;nan
4617;BME280;2321;42.704;23.384;2023-01-26T13:19:00;95210.25;;;2.96;nan
4617;BME280;2321;42.704;23.384;2023-01-26T13:21:41;95222.28;;;2.99;nan
4617;BME280;2321;42.704;23.384;2023-01-26T13:24:42;95208.00;;;3.01;nan
4617;BME280;2321;42.704;23.384;2023-01-26T13:27:31;95206.28;;;3.10;nan
4617;BME280;2321;42.704;23.384;2023-01-26T13:29:59;95202.16;;;3.08;nan
4617;BME280;2321;42.704;23.384;2023-01-26T13:32:54;95168.53;;;2.83;nan
4617;BME280;2321;42.704;23.384;2023-01-26T13:35:28;95194.19;;;2.99;nan
4617;BME280;2321;42.704;23.384;2023-01-26T13:38:02;95199.44;;;2.99;nan
4617;BME280;2321;42.704;23.384;2023-01-26T13:40:34;95197.03;;;3.06;nan
4617;BME280;2321;42.704;23.384;2023-01-26T13:43:06;95195.25;;;3.07;nan
4617;BME280;2321;42.704;23.384;2023-01-26T13:45:39;95186.38;;;3.08;nan
4617;BME280;2321;42.704;23.384;2023-01-26T13:48:13;95185.03;;;3.03;nan
4617;BME280;2321;42.704;23.384;2023-01-26T13:50:42;95185.41;;;3.09;nan
4617;BME280;2321;42.704;23.384;2023-01-26T13:53:35;95187.34;;;3.07;nan
4617;BME280;2321;42.704;23.384;2023-01-26T13:56:04;95186.06;;;3.11;nan
4617;BME280;2321;42.704;23.384;2023-01-26T13:58:32;95183.44;;;3.11;nan
4617;BME280;2321;42.704;23.384;2023-01-26T14:01:02;95176.38;;;3.11;nan
4617;BME280;2321;42.704;23.384;2023-01-26T14:03:29;95163.22;;;3.11;nan
4617;BME280;2321;42.704;23.384;2023-01-26T14:05:59;95161.47;;;3.20;nan
4617;BME280;2321;42.704;23.384;2023-01-26T14:08:28;95167.28;;;3.24;nan